Time;durP1;ratioP1;P1;durP2;ratioP2;P2;SDS_P1;SDS_P2;PMS_P1;PMS_P2;Temp;Humidity;BMP_temperature;BMP_pressure;BME280_temperature;BME280_humidity;BME280_pressure;Samples;Min_cycle;Max_cycle;Signal;HPM_P1;HPM_P2
2023/01/01 00:00:12;;;;;;;72.93;49.47;;;14.30;99.90;;;;;;7385048;19;20171;-73
2023/01/01 00:02:38;;;;;;;51.40;31.42;;;14.30;99.90;;;;;;7387479;19;20586;-73
2023/01/01 00:05:06;;;;;;;137.30;90.93;;;14.40;99.90;;;;;;7380618;19;20371;-73
2023/01/01 00:07:32;;;;;;;90.13;66.10;;;14.40;99.90;;;;;;7388934;19;20135;-73
2023/01/01 00:12:41;;;;;;;217.10;141.88;;;14.50;99.90;;;;;;7380824;19;20157;-74
2023/01/01 00:15:07;;;;;;;121.38;81.10;;;14.40;99.90;;;;;;7383733;19;20138;-73
2023/01/01 00:17:33;;;;;;;277.42;195.18;;;14.40;99.90;;;;;;7384664;19;20157;-73
2023/01/01 00:19:59;;;;;;;331.98;243.40;;;14.40;99.90;;;;;;7386444;19;20138;-74
2023/01/01 00:22:25;;;;;;;51.35;37.63;;;14.40;99.90;;;;;;7387150;19;20145;-74
2023/01/01 00:24:51;;;;;;;56.92;37.08;;;14.30;99.90;;;;;;7389855;19;20141;-74
2023/01/01 00:27:18;;;;;;;49.50;33.95;;;14.20;99.90;;;;;;7393968;19;20134;-74
2023/01/01 00:29:43;;;;;;;57.40;33.25;;;14.20;99.90;;;;;;7395941;19;20137;-73
2023/01/01 00:32:11;;;;;;;59.55;37.40;;;14.20;99.90;;;;;;7396124;19;21769;-73
2023/01/01 00:34:37;;;;;;;43.97;27.23;;;14.10;99.90;;;;;;7399638;19;20160;-74
2023/01/01 00:37:03;;;;;;;59.33;26.17;;;14.10;99.90;;;;;;7398557;19;20172;-73
2023/01/01 00:39:29;;;;;;;47.70;24.65;;;14.10;99.90;;;;;;7397030;19;20228;-74
2023/01/01 00:41:55;;;;;;;64.55;25.70;;;14.20;99.90;;;;;;7396323;19;20137;-75
2023/01/01 00:44:21;;;;;;;65.75;37.17;;;14.20;99.90;;;;;;7394974;19;20142;-74
2023/01/01 00:46:48;;;;;;;105.53;74.80;;;14.20;99.90;;;;;;7394200;19;20139;-74
2023/01/01 00:49:14;;;;;;;27.25;20.20;;;14.20;99.90;;;;;;7394595;19;20135;-74
2023/01/01 00:51:40;;;;;;;17.75;11.38;;;14.30;99.90;;;;;;7394031;19;20137;-73
2023/01/01 00:54:05;;;;;;;13.32;9.50;;;14.30;99.90;;;;;;7395761;19;20162;-73
2023/01/01 00:56:31;;;;;;;12.65;8.25;;;14.30;99.90;;;;;;7398452;19;20575;-73
2023/01/01 00:58:57;;;;;;;17.05;10.60;;;14.30;99.90;;;;;;7397737;19;20127;-74
2023/01/01 01:01:23;;;;;;;12.75;8.88;;;14.30;99.90;;;;;;7396042;19;20146;-73
2023/01/01 01:03:50;;;;;;;11.30;8.20;;;14.30;99.90;;;;;;7397181;19;20158;-73
2023/01/01 01:06:17;;;;;;;14.02;9.00;;;14.20;99.90;;;;;;7396748;19;20131;-74
2023/01/01 01:08:45;;;;;;;11.10;7.43;;;14.20;99.90;;;;;;7394404;19;20178;-74
2023/01/01 01:11:18;;;;;;;11.60;7.20;;;14.20;99.90;;;;;;7394252;19;20161;-73
2023/01/01 01:13:45;;;;;;;28.75;18.30;;;14.20;99.90;;;;;;7394826;19;20137;-74
2023/01/01 01:16:24;;;;;;;18.83;9.30;;;14.10;99.90;;;;;;7395964;19;20148;-74
2023/01/01 01:18:52;;;;;;;15.20;7.47;;;14.00;99.90;;;;;;7395819;19;20134;-74
2023/01/01 01:21:21;;;;;;;14.60;9.35;;;13.90;99.90;;;;;;7396099;19;20150;-73
2023/01/01 01:23:47;;;;;;;14.63;10.18;;;13.90;99.90;;;;;;7394383;19;20534;-73
2023/01/01 01:26:17;;;;;;;10.82;7.63;;;13.90;99.90;;;;;;7396001;19;20150;-74
2023/01/01 01:28:45;;;;;;;10.50;6.85;;;14.00;99.90;;;;;;7396319;19;20525;-74
2023/01/01 01:31:11;;;;;;;10.95;6.90;;;13.90;99.90;;;;;;7397908;19;20570;-73
2023/01/01 01:33:37;;;;;;;15.40;9.98;;;13.80;99.90;;;;;;7389485;19;20553;-74
2023/01/01 01:36:04;;;;;;;15.13;9.43;;;14.00;99.90;;;;;;7395591;19;20142;-75
2023/01/01 01:38:31;;;;;;;9.73;7.00;;;13.90;99.90;;;;;;7394093;19;20135;-74
2023/01/01 01:40:57;;;;;;;9.35;7.10;;;13.80;99.90;;;;;;7396872;19;20217;-74
2023/01/01 01:43:32;;;;;;;10.65;7.25;;;13.80;99.90;;;;;;7394942;19;20134;-73
2023/01/01 01:46:05;;;;;;;13.52;7.70;;;13.60;99.90;;;;;;7394401;19;20130;-74
2023/01/01 01:48:41;;;;;;;12.68;7.90;;;13.60;99.90;;;;;;7395390;19;20953;-73
2023/01/01 01:51:08;;;;;;;14.43;8.57;;;13.60;99.90;;;;;;7393873;19;20142;-73
2023/01/01 01:53:38;;;;;;;11.95;8.32;;;13.50;99.90;;;;;;7391635;19;20165;-73
2023/01/01 01:56:09;;;;;;;12.20;9.00;;;13.30;99.90;;;;;;7394521;19;20210;-73
2023/01/01 01:58:34;;;;;;;17.15;10.27;;;13.50;99.90;;;;;;7396244;19;20145;-73
2023/01/01 02:01:01;;;;;;;13.00;9.05;;;13.50;99.90;;;;;;7396699;19;20126;-73
2023/01/01 02:03:46;;;;;;;13.38;7.50;;;13.40;99.90;;;;;;7390604;19;20521;-74
2023/01/01 02:06:13;;;;;;;11.02;7.32;;;13.40;99.90;;;;;;7395433;19;20586;-73
2023/01/01 02:08:38;;;;;;;11.98;7.63;;;13.50;99.90;;;;;;7394050;19;20147;-72
2023/01/01 02:11:04;;;;;;;9.07;6.88;;;13.50;99.90;;;;;;7397396;19;20138;-73
2023/01/01 02:13:30;;;;;;;10.70;7.40;;;13.50;99.90;;;;;;7392955;19;20157;-73
2023/01/01 02:16:08;;;;;;;10.73;7.72;;;13.50;99.90;;;;;;7394099;19;20594;-74
2023/01/01 02:18:51;;;;;;;12.00;7.80;;;13.60;99.90;;;;;;7393651;19;20134;-73
2023/01/01 02:21:22;;;;;;;13.80;8.68;;;13.60;99.90;;;;;;7395732;19;20157;-73
2023/01/01 02:23:54;;;;;;;13.63;7.97;;;13.70;99.90;;;;;;7393438;19;20147;-73
2023/01/01 02:26:25;;;;;;;12.48;8.40;;;13.90;99.90;;;;;;7392231;19;20162;-72
2023/01/01 02:29:03;;;;;;;13.07;9.45;;;13.80;99.90;;;;;;7394071;19;20786;-73
2023/01/01 02:31:36;;;;;;;9.02;6.88;;;13.70;99.90;;;;;;7391529;19;20463;-73
2023/01/01 02:34:06;;;;;;;10.88;6.80;;;13.30;99.90;;;;;;7391707;19;20138;-72
2023/01/01 02:36:34;;;;;;;11.20;8.10;;;13.20;99.90;;;;;;7391195;19;20197;-74
2023/01/01 02:39:03;;;;;;;9.35;6.50;;;13.40;99.90;;;;;;7392774;19;20139;-72
2023/01/01 02:41:40;;;;;;;10.82;7.00;;;13.30;99.90;;;;;;7392950;19;20137;-73
2023/01/01 02:44:06;;;;;;;9.23;5.72;;;13.30;99.90;;;;;;7394936;19;20446;-73
2023/01/01 02:46:33;;;;;;;10.77;6.43;;;13.40;99.90;;;;;;7391495;19;20131;-74
2023/01/01 02:49:00;;;;;;;7.95;5.75;;;13.50;99.90;;;;;;7394823;19;20127;-75
2023/01/01 02:52:02;;;;;;;8.00;5.68;;;13.50;99.90;;;;;;7392646;19;20169;-72
2023/01/01 02:54:43;;;;;;;10.02;6.28;;;13.50;99.90;;;;;;7394293;19;20134;-73
2023/01/01 02:57:33;;;;;;;8.38;5.63;;;13.40;99.90;;;;;;7391045;19;20130;-72
2023/01/01 03:00:23;;;;;;;8.05;5.63;;;13.50;99.90;;;;;;7392801;19;20127;-73
2023/01/01 03:03:15;;;;;;;7.93;4.78;;;13.50;99.90;;;;;;7392144;19;20135;-72
2023/01/01 03:09:06;;;;;;;13.05;7.68;;;13.70;99.90;;;;;;7393464;19;20146;-73
2023/01/01 03:11:53;;;;;;;10.63;7.88;;;13.70;99.90;;;;;;7393863;19;20164;-73
2023/01/01 03:14:45;;;;;;;8.35;4.75;;;13.60;99.90;;;;;;7393446;19;20146;-73
2023/01/01 03:17:40;;;;;;;7.07;4.57;;;13.50;99.90;;;;;;7391658;19;20159;-74
2023/01/01 03:20:10;;;;;;;6.70;4.10;;;13.70;99.90;;;;;;7392899;19;20139;-75
2023/01/01 03:22:38;;;;;;;6.25;4.63;;;13.80;99.90;;;;;;7392045;19;20143;-73
2023/01/01 03:25:12;;;;;;;6.78;5.20;;;13.70;99.90;;;;;;7392118;19;20151;-73
2023/01/01 03:27:47;;;;;;;9.65;7.32;;;13.80;99.90;;;;;;7391269;19;20146;-72
2023/01/01 03:30:15;;;;;;;15.07;9.52;;;13.90;99.90;;;;;;7393239;19;20151;-73
2023/01/01 03:32:59;;;;;;;11.25;8.43;;;13.90;99.90;;;;;;7391989;19;20135;-74
2023/01/01 03:35:30;;;;;;;12.38;7.03;;;13.70;99.90;;;;;;7390581;19;20233;-72
2023/01/01 03:37:59;;;;;;;12.00;5.40;;;13.60;99.90;;;;;;7389829;19;20171;-73
2023/01/01 03:40:27;;;;;;;7.18;4.50;;;13.70;99.90;;;;;;7391425;19;20604;-74
2023/01/01 03:42:58;;;;;;;10.63;7.10;;;13.70;99.90;;;;;;7389981;19;20137;-74
2023/01/01 03:45:29;;;;;;;19.80;14.45;;;13.70;99.90;;;;;;7392031;19;20142;-75
2023/01/01 03:47:57;;;;;;;24.02;15.80;;;13.90;99.90;;;;;;7392608;19;20148;-73
2023/01/01 03:50:30;;;;;;;24.02;16.70;;;14.00;99.90;;;;;;7389455;19;20583;-74
2023/01/01 03:53:06;;;;;;;12.70;8.07;;;13.80;99.90;;;;;;7388690;19;20135;-73
2023/01/01 03:55:57;;;;;;;10.73;6.22;;;13.40;99.90;;;;;;7390290;19;20172;-75
2023/01/01 03:58:35;;;;;;;6.03;4.45;;;13.20;99.90;;;;;;7389524;19;20151;-74
2023/01/01 04:01:14;;;;;;;6.65;4.25;;;13.10;99.90;;;;;;7386314;19;20126;-72
2023/01/01 04:03:41;;;;;;;3.97;3.58;;;13.10;99.90;;;;;;7391320;19;20150;-74
2023/01/01 04:06:10;;;;;;;5.60;3.83;;;13.20;99.90;;;;;;7391022;19;20138;-72
2023/01/01 04:08:36;;;;;;;5.82;4.10;;;13.20;99.90;;;;;;7391687;19;20134;-73
2023/01/01 04:12:00;;;;;;;6.65;3.95;;;13.40;99.90;;;;;;7388833;19;20150;-73
2023/01/01 04:13:55;;;;;;;7.75;4.57;;;13.30;99.90;;;;;;7388910;19;20154;-73
2023/01/01 04:16:20;;;;;;;5.30;3.90;;;13.40;99.90;;;;;;7389430;19;20598;-73
2023/01/01 04:18:46;;;;;;;5.97;3.85;;;13.30;99.90;;;;;;7392753;19;20230;-74
2023/01/01 04:21:12;;;;;;;6.47;3.92;;;13.30;99.90;;;;;;7390732;19;20134;-73
2023/01/01 04:23:38;;;;;;;6.60;3.45;;;13.10;99.90;;;;;;7384572;19;20135;-73
2023/01/01 04:26:03;;;;;;;6.75;4.40;;;13.30;99.90;;;;;;7390976;19;20130;-74
2023/01/01 04:28:30;;;;;;;6.10;4.20;;;13.20;99.90;;;;;;7389709;19;20138;-73
2023/01/01 04:30:59;;;;;;;6.18;4.20;;;13.20;99.90;;;;;;7392418;19;20210;-73
2023/01/01 04:33:25;;;;;;;7.30;4.65;;;13.20;99.90;;;;;;7384210;19;20154;-73
2023/01/01 04:35:51;;;;;;;5.70;4.15;;;13.30;99.90;;;;;;7391507;19;20599;-74
2023/01/01 04:38:17;;;;;;;7.50;4.30;;;13.40;99.90;;;;;;7391665;19;20131;-73
2023/01/01 04:40:42;;;;;;;5.90;4.72;;;13.40;99.90;;;;;;7390633;19;20142;-73
2023/01/01 04:43:08;;;;;;;9.35;5.97;;;13.50;99.90;;;;;;7389390;19;20171;-72
2023/01/01 04:45:34;;;;;;;8.25;5.40;;;13.50;99.90;;;;;;7388310;19;20146;-74
2023/01/01 04:48:04;;;;;;;10.68;6.10;;;13.70;99.90;;;;;;7389283;19;20150;-73
2023/01/01 04:50:30;;;;;;;8.27;6.15;;;13.60;99.90;;;;;;7389959;19;20130;-73
2023/01/01 04:52:57;;;;;;;10.65;6.80;;;13.60;99.90;;;;;;7387148;19;20558;-73
2023/01/01 04:55:23;;;;;;;11.02;7.07;;;13.60;99.90;;;;;;7390977;19;20161;-74
2023/01/01 04:57:49;;;;;;;10.18;6.70;;;13.50;99.90;;;;;;7391595;19;20134;-73
2023/01/01 05:00:15;;;;;;;11.85;6.45;;;13.50;99.90;;;;;;7389430;19;20145;-74
2023/01/01 05:02:40;;;;;;;10.55;5.90;;;13.40;99.90;;;;;;7390643;19;20149;-73
2023/01/01 05:05:06;;;;;;;6.78;4.20;;;13.30;99.90;;;;;;7385302;19;20226;-73
2023/01/01 05:07:32;;;;;;;5.95;3.38;;;13.30;99.90;;;;;;7390380;19;20139;-72
2023/01/01 05:09:58;;;;;;;5.60;3.70;;;13.40;99.90;;;;;;7394488;19;20130;-73
2023/01/01 05:12:24;;;;;;;6.43;4.28;;;13.30;99.90;;;;;;7391639;19;20182;-73
2023/01/01 05:14:51;;;;;;;5.35;3.30;;;13.40;99.90;;;;;;7394696;19;20173;-72
2023/01/01 05:17:17;;;;;;;3.03;2.50;;;13.40;99.90;;;;;;7396869;19;20151;-74
2023/01/01 05:19:43;;;;;;;4.65;3.25;;;13.40;99.90;;;;;;7394914;19;20168;-75
2023/01/01 05:22:08;;;;;;;4.35;3.40;;;13.40;99.90;;;;;;7395910;19;20139;-74
2023/01/01 05:24:35;;;;;;;5.13;3.58;;;13.40;99.90;;;;;;7393202;19;20142;-74
2023/01/01 05:27:01;;;;;;;5.45;2.80;;;13.40;99.90;;;;;;7394405;19;20139;-74
2023/01/01 05:29:27;;;;;;;5.82;3.53;;;13.40;99.90;;;;;;7393045;19;20151;-73
2023/01/01 05:31:52;;;;;;;5.88;3.42;;;13.40;99.90;;;;;;7392888;19;20134;-74
2023/01/01 05:34:18;;;;;;;6.18;3.65;;;13.50;99.90;;;;;;7394445;19;20629;-73
2023/01/01 05:36:44;;;;;;;5.20;3.17;;;13.50;99.90;;;;;;7394245;19;20146;-73
2023/01/01 05:39:11;;;;;;;5.10;3.15;;;13.60;99.90;;;;;;7394601;19;20647;-74
2023/01/01 05:41:38;;;;;;;5.63;3.58;;;13.60;99.90;;;;;;7393650;19;20178;-75
2023/01/01 05:44:05;;;;;;;3.88;2.90;;;13.70;99.90;;;;;;7394370;19;20139;-73
2023/01/01 05:46:31;;;;;;;5.00;3.58;;;13.70;99.90;;;;;;7396303;19;20161;-72
2023/01/01 05:48:57;;;;;;;7.43;4.47;;;13.80;99.90;;;;;;7394666;19;20138;-72
2023/01/01 05:51:25;;;;;;;7.78;4.50;;;13.80;99.90;;;;;;7396210;19;20134;-74
2023/01/01 05:53:52;;;;;;;6.80;4.72;;;13.90;99.90;;;;;;7393111;19;20146;-73
2023/01/01 05:56:18;;;;;;;6.47;3.90;;;13.80;99.90;;;;;;7396143;19;20150;-73
2023/01/01 05:58:44;;;;;;;4.93;3.25;;;13.70;99.90;;;;;;7393013;19;20164;-73
2023/01/01 06:01:17;;;;;;;6.47;3.30;;;13.70;99.90;;;;;;7396453;19;20142;-74
2023/01/01 06:03:44;;;;;;;4.28;2.78;;;13.60;99.90;;;;;;7392484;19;20188;-74
2023/01/01 06:06:12;;;;;;;4.07;2.55;;;13.60;99.90;;;;;;7395850;19;20143;-73
2023/01/01 06:08:39;;;;;;;2.90;2.50;;;13.50;99.90;;;;;;7389598;19;20141;-74
2023/01/01 06:11:06;;;;;;;3.88;2.75;;;13.60;99.90;;;;;;7396431;19;20270;-72
2023/01/01 06:13:33;;;;;;;4.80;2.47;;;13.50;99.90;;;;;;7393538;19;20141;-72
2023/01/01 06:16:00;;;;;;;4.53;2.70;;;13.50;99.90;;;;;;7394517;19;20141;-73
2023/01/01 06:18:29;;;;;;;5.63;2.92;;;13.40;99.90;;;;;;7394841;19;20218;-73
2023/01/01 06:21:01;;;;;;;3.95;2.75;;;13.60;99.90;;;;;;7391147;19;20151;-74
2023/01/01 06:23:28;;;;;;;3.38;2.30;;;13.50;99.90;;;;;;7392637;19;20178;-74
2023/01/01 06:25:53;;;;;;;3.42;2.33;;;13.40;99.90;;;;;;7394655;19;20134;-73
2023/01/01 06:28:19;;;;;;;3.90;2.67;;;13.40;99.90;;;;;;7393762;19;20141;-73
2023/01/01 06:30:45;;;;;;;3.92;2.47;;;13.40;99.90;;;;;;7392278;19;20156;-75
2023/01/01 06:33:10;;;;;;;4.10;2.22;;;13.50;99.90;;;;;;7388071;19;20146;-73
2023/01/01 06:35:36;;;;;;;2.97;2.33;;;13.50;99.90;;;;;;7393135;19;20583;-74
2023/01/01 06:38:02;;;;;;;3.75;2.40;;;13.40;99.90;;;;;;7393006;19;20147;-76
2023/01/01 06:40:27;;;;;;;3.75;2.55;;;13.10;99.90;;;;;;7393566;19;20145;-74
2023/01/01 06:42:53;;;;;;;3.65;2.53;;;13.20;99.90;;;;;;7393112;19;20599;-72
2023/01/01 06:45:19;;;;;;;3.65;2.50;;;13.30;99.90;;;;;;7392150;19;20167;-74
2023/01/01 06:47:45;;;;;;;4.40;2.50;;;13.30;99.90;;;;;;7392692;19;20150;-72
2023/01/01 06:50:10;;;;;;;3.20;2.63;;;13.10;99.90;;;;;;7392382;19;20173;-73
2023/01/01 06:52:36;;;;;;;3.72;2.60;;;13.00;99.90;;;;;;7392581;19;20247;-74
2023/01/01 06:55:02;;;;;;;4.53;2.83;;;13.00;99.90;;;;;;7391379;19;20622;-73
2023/01/01 06:57:28;;;;;;;6.20;2.75;;;13.00;99.90;;;;;;7393358;19;20139;-75
2023/01/01 06:59:54;;;;;;;4.93;2.58;;;12.90;99.90;;;;;;7391378;19;20126;-76
2023/01/01 07:02:19;;;;;;;4.22;2.80;;;12.70;99.90;;;;;;7393110;19;20134;-72
2023/01/01 07:04:45;;;;;;;4.45;2.63;;;12.80;99.90;;;;;;7389968;19;20147;-74
2023/01/01 07:07:11;;;;;;;4.75;3.05;;;12.80;99.90;;;;;;7395261;19;20157;-73
2023/01/01 07:09:36;;;;;;;5.30;2.97;;;12.80;99.90;;;;;;7395147;19;20138;-73
2023/01/01 07:12:02;;;;;;;6.78;2.72;;;12.90;99.90;;;;;;7391354;19;20559;-73
2023/01/01 07:14:28;;;;;;;3.42;2.47;;;12.80;99.90;;;;;;7391729;19;20138;-74
2023/01/01 07:16:54;;;;;;;6.35;2.70;;;12.80;99.90;;;;;;7393238;19;20500;-73
2023/01/01 07:19:19;;;;;;;3.33;2.50;;;12.50;99.90;;;;;;7392005;19;20143;-74
2023/01/01 07:21:51;;;;;;;4.60;2.78;;;12.80;99.90;;;;;;7393081;19;20218;-75
2023/01/01 07:24:17;;;;;;;4.68;3.08;;;12.60;99.90;;;;;;7392909;19;20181;-73
2023/01/01 07:26:43;;;;;;;3.15;2.70;;;12.60;99.90;;;;;;7392725;19;20299;-73
2023/01/01 07:29:09;;;;;;;6.68;3.42;;;12.60;99.90;;;;;;7392729;19;20221;-73
2023/01/01 07:31:37;;;;;;;3.78;2.72;;;12.40;99.90;;;;;;7392370;19;20171;-73
2023/01/01 07:34:04;;;;;;;3.53;2.88;;;12.20;99.90;;;;;;7392636;19;20482;-74
2023/01/01 07:36:30;;;;;;;4.03;2.50;;;12.30;99.90;;;;;;7393341;19;20150;-74
2023/01/01 07:38:56;;;;;;;3.95;2.65;;;12.40;99.90;;;;;;7390452;19;20134;-74
2023/01/01 07:41:22;;;;;;;4.20;2.80;;;12.30;99.90;;;;;;7390960;19;20149;-73
2023/01/01 07:43:47;;;;;;;3.00;2.25;;;12.30;99.90;;;;;;7390800;19;20131;-72
2023/01/01 07:46:18;;;;;;;3.63;2.70;;;12.40;99.90;;;;;;7390908;19;20582;-73
2023/01/01 07:48:44;;;;;;;3.47;2.63;;;12.40;99.90;;;;;;7392711;19;20214;-73
2023/01/01 07:51:09;;;;;;;2.88;2.45;;;12.50;99.90;;;;;;7392344;19;20154;-72
2023/01/01 07:53:35;;;;;;;3.25;2.35;;;12.40;99.90;;;;;;7388397;19;20625;-74
2023/01/01 07:56:01;;;;;;;3.17;2.33;;;12.40;99.90;;;;;;7391037;19;20135;-72
2023/01/01 07:58:27;;;;;;;4.53;2.20;;;12.30;99.90;;;;;;7392564;19;20574;-73
2023/01/01 08:00:53;;;;;;;3.63;2.53;;;12.30;99.90;;;;;;7387498;19;20151;-74
2023/01/01 08:03:18;;;;;;;4.57;2.23;;;12.20;99.90;;;;;;7389291;19;20139;-73
2023/01/01 08:05:44;;;;;;;3.70;2.63;;;12.30;99.90;;;;;;7390681;19;20162;-73
2023/01/01 08:08:10;;;;;;;3.87;2.77;;;12.30;99.90;;;;;;7390445;19;20234;-74
2023/01/01 08:10:37;;;;;;;5.28;3.13;;;12.50;99.90;;;;;;7391584;19;20134;-74
2023/01/01 08:13:06;;;;;;;4.43;2.83;;;12.50;99.90;;;;;;7386561;19;20144;-72
2023/01/01 08:15:32;;;;;;;3.67;2.70;;;12.50;99.90;;;;;;7390030;19;20143;-72
2023/01/01 08:18:00;;;;;;;4.30;2.40;;;12.70;99.90;;;;;;7388374;19;20142;-73
2023/01/01 08:20:27;;;;;;;2.78;2.35;;;12.70;99.90;;;;;;7390472;19;20226;-73
2023/01/01 08:22:52;;;;;;;5.03;2.80;;;12.70;99.90;;;;;;7387510;19;20383;-71
2023/01/01 08:25:18;;;;;;;3.88;2.50;;;12.80;99.90;;;;;;7390006;19;20202;-73
2023/01/01 08:27:44;;;;;;;3.67;2.78;;;12.90;99.90;;;;;;7388569;19;20157;-72
2023/01/01 08:30:12;;;;;;;4.60;2.75;;;12.90;99.90;;;;;;7389184;19;20150;-72
2023/01/01 08:32:38;;;;;;;3.53;2.30;;;13.00;99.90;;;;;;7385531;19;20629;-74
2023/01/01 08:35:04;;;;;;;3.70;2.40;;;13.00;99.90;;;;;;7385254;19;20123;-73
2023/01/01 08:37:30;;;;;;;3.20;2.45;;;12.90;99.90;;;;;;7384318;19;20158;-72
2023/01/01 08:39:56;;;;;;;4.28;2.47;;;13.00;99.90;;;;;;7387785;19;20159;-73
2023/01/01 08:42:21;;;;;;;4.60;2.60;;;13.00;99.90;;;;;;7385681;19;20135;-72
2023/01/01 08:44:47;;;;;;;5.13;3.33;;;12.70;99.90;;;;;;7392431;19;20194;-74
2023/01/01 08:47:21;;;;;;;3.58;2.75;;;12.60;99.90;;;;;;7393727;19;20134;-73
2023/01/01 08:49:47;;;;;;;3.70;2.58;;;12.70;99.90;;;;;;7392979;19;20142;-73
2023/01/01 08:52:13;;;;;;;6.32;2.75;;;12.70;99.90;;;;;;7391562;19;20143;-74
2023/01/01 08:54:39;;;;;;;7.57;3.10;;;12.70;99.90;;;;;;7393624;19;20165;-74
2023/01/01 08:57:05;;;;;;;4.78;2.60;;;12.50;99.90;;;;;;7392121;19;20168;-73
2023/01/01 08:59:31;;;;;;;4.22;2.42;;;12.50;99.90;;;;;;7392551;19;20603;-73
2023/01/01 09:01:58;;;;;;;3.72;2.28;;;12.40;99.90;;;;;;7392887;19;20141;-73
2023/01/01 09:04:24;;;;;;;3.83;2.17;;;12.40;99.90;;;;;;7389625;19;20142;-73
2023/01/01 09:06:51;;;;;;;3.23;2.20;;;12.30;99.90;;;;;;7391029;19;20135;-73
2023/01/01 09:09:16;;;;;;;4.97;2.53;;;12.40;99.90;;;;;;7393039;19;20157;-72
2023/01/01 09:11:53;;;;;;;5.50;2.80;;;12.50;99.90;;;;;;7390844;19;20127;-72
2023/01/01 09:14:20;;;;;;;9.85;3.45;;;12.80;99.90;;;;;;7389908;19;20130;-73
2023/01/01 09:16:46;;;;;;;4.70;2.60;;;12.60;99.90;;;;;;7390940;19;20123;-74
2023/01/01 09:19:12;;;;;;;3.70;2.42;;;12.70;99.90;;;;;;7391228;19;20175;-73
2023/01/01 09:21:38;;;;;;;3.90;2.47;;;12.70;99.90;;;;;;7392492;19;20134;-73
2023/01/01 09:24:04;;;;;;;3.50;2.40;;;12.70;99.90;;;;;;7391189;19;20141;-74
2023/01/01 09:26:30;;;;;;;6.82;3.38;;;12.70;99.90;;;;;;7393426;19;20218;-73
2023/01/01 09:28:58;;;;;;;5.15;2.65;;;12.80;99.90;;;;;;7393280;19;20165;-73
2023/01/01 09:31:24;;;;;;;6.15;3.13;;;12.80;99.90;;;;;;7392918;19;20239;-74
2023/01/01 09:33:50;;;;;;;4.72;2.50;;;12.70;99.90;;;;;;7388794;19;20134;-73
2023/01/01 09:36:28;;;;;;;3.30;2.28;;;12.70;99.90;;;;;;7394496;19;20153;-74
2023/01/01 09:38:55;;;;;;;4.95;2.70;;;12.70;99.90;;;;;;7393712;19;20170;-73
2023/01/01 09:41:40;;;;;;;2.97;2.25;;;12.80;99.90;;;;;;7396372;19;20139;-73
2023/01/01 09:45:00;;;;;;;4.38;2.78;;;12.80;99.90;;;;;;7393898;19;20221;-72
2023/01/01 09:47:50;;;;;;;4.68;3.28;;;12.90;99.90;;;;;;7391131;19;20498;-74
2023/01/01 09:50:37;;;;;;;2.08;1.63;;;13.00;99.90;;;;;;7392649;19;20131;-73
2023/01/01 09:53:19;;;;;;;2.88;2.00;;;12.90;99.90;;;;;;7389353;19;20146;-72
2023/01/01 09:55:59;;;;;;;3.80;2.22;;;13.00;99.90;;;;;;7387323;19;20684;-72
2023/01/01 09:58:37;;;;;;;3.20;2.28;;;13.00;99.90;;;;;;7390534;19;20146;-72
2023/01/01 10:01:22;;;;;;;3.40;2.42;;;13.00;99.90;;;;;;7393906;19;20205;-72
2023/01/01 10:03:53;;;;;;;5.00;2.13;;;13.10;99.90;;;;;;7394104;19;20190;-74
2023/01/01 10:06:29;;;;;;;2.90;2.05;;;13.10;99.90;;;;;;7394774;19;20127;-72
2023/01/01 10:09:10;;;;;;;4.25;2.53;;;13.20;99.90;;;;;;7395942;19;20151;-73
2023/01/01 10:11:41;;;;;;;3.72;2.60;;;13.30;99.90;;;;;;7393301;19;20142;-72
2023/01/01 10:14:31;;;;;;;4.13;2.40;;;13.40;99.90;;;;;;7395250;19;20131;-71
2023/01/01 10:17:01;;;;;;;2.95;2.05;;;13.40;99.90;;;;;;7396270;19;20158;-72
2023/01/01 10:19:39;;;;;;;3.17;2.13;;;13.60;99.90;;;;;;7394521;19;20138;-72
2023/01/01 10:22:17;;;;;;;3.63;2.60;;;13.70;99.90;;;;;;7391007;19;20759;-69
2023/01/01 10:24:51;;;;;;;3.90;2.63;;;13.80;99.90;;;;;;7392345;19;20390;-70
2023/01/01 10:27:31;;;;;;;5.07;2.65;;;13.90;99.90;;;;;;7392117;19;20451;-70
2023/01/01 10:30:00;;;;;;;4.20;2.33;;;13.90;99.90;;;;;;7388251;19;20165;-71
2023/01/01 10:32:35;;;;;;;5.63;2.65;;;14.00;99.90;;;;;;7389486;19;20162;-71
2023/01/01 10:35:09;;;;;;;5.85;2.40;;;14.10;99.90;;;;;;7393319;19;20126;-71
2023/01/01 10:37:37;;;;;;;4.50;2.40;;;14.10;99.90;;;;;;7394852;19;20384;-71
2023/01/01 10:40:18;;;;;;;4.40;2.50;;;14.20;99.90;;;;;;7394799;19;20139;-73
2023/01/01 10:42:52;;;;;;;2.72;1.90;;;14.30;99.90;;;;;;7394693;19;20131;-71
2023/01/01 10:45:35;;;;;;;4.95;2.10;;;14.50;99.90;;;;;;7394493;19;20130;-74
2023/01/01 10:48:15;;;;;;;3.50;1.90;;;14.60;99.90;;;;;;7394890;19;20138;-73
2023/01/01 10:50:49;;;;;;;3.08;1.80;;;14.80;99.90;;;;;;7393547;19;20133;-74
2023/01/01 10:53:42;;;;;;;3.22;1.63;;;14.90;99.90;;;;;;7389089;19;20199;-73
2023/01/01 10:56:13;;;;;;;2.97;1.80;;;15.00;99.90;;;;;;7389192;19;20153;-73
2023/01/01 10:58:47;;;;;;;4.85;1.77;;;15.00;99.90;;;;;;7389726;19;20157;-74
2023/01/01 11:01:16;;;;;;;3.38;1.73;;;15.10;99.90;;;;;;7389882;19;20146;-73
2023/01/01 11:04:08;;;;;;;5.97;2.58;;;15.20;99.90;;;;;;7387132;19;20559;-72
2023/01/01 11:06:42;;;;;;;3.17;1.80;;;15.20;99.90;;;;;;7392638;19;20206;-73
2023/01/01 11:09:35;;;;;;;4.15;1.95;;;15.30;99.90;;;;;;7391371;19;20127;-74
2023/01/01 11:12:06;;;;;;;4.20;1.60;;;15.30;99.90;;;;;;7392606;19;20138;-73
2023/01/01 11:14:41;;;;;;;6.05;1.90;;;15.40;99.90;;;;;;7389851;19;20821;-72
2023/01/01 11:17:08;;;;;;;6.82;1.67;;;15.50;99.90;;;;;;7393455;19;20157;-73
2023/01/01 11:19:36;;;;;;;2.47;1.65;;;15.50;99.90;;;;;;7393083;19;20133;-73
2023/01/01 11:22:03;;;;;;;2.85;1.40;;;15.60;99.90;;;;;;7391713;19;20131;-74
2023/01/01 11:24:34;;;;;;;3.72;1.35;;;15.70;99.90;;;;;;7386630;19;20146;-74
2023/01/01 11:27:25;;;;;;;4.38;1.90;;;15.70;99.90;;;;;;7390643;19;20221;-74
2023/01/01 11:29:53;;;;;;;2.67;1.67;;;15.80;99.90;;;;;;7389195;19;20131;-72
2023/01/01 11:32:32;;;;;;;2.45;1.38;;;15.90;99.90;;;;;;7390118;19;20143;-74
2023/01/01 11:35:01;;;;;;;3.08;1.67;;;15.90;99.90;;;;;;7390583;19;20134;-73
2023/01/01 11:37:34;;;;;;;4.63;1.90;;;16.00;99.90;;;;;;7391506;19;20142;-76
2023/01/01 11:40:02;;;;;;;2.67;1.65;;;16.00;99.90;;;;;;7393765;19;20175;-73
2023/01/01 11:42:46;;;;;;;2.65;1.70;;;16.10;99.90;;;;;;7393983;19;20892;-71
2023/01/01 11:45:22;;;;;;;3.78;1.60;;;16.20;99.90;;;;;;7390580;19;20146;-71
2023/01/01 11:48:28;;;;;;;4.70;1.70;;;16.20;99.90;;;;;;7393103;19;20142;-72
2023/01/01 11:50:56;;;;;;;6.20;1.80;;;16.20;99.90;;;;;;7388924;19;20162;-72
2023/01/01 11:53:22;;;;;;;4.93;1.85;;;16.30;99.90;;;;;;7385779;19;20155;-74
2023/01/01 11:56:22;;;;;;;2.92;1.58;;;16.50;99.90;;;;;;7386729;19;20143;-73
2023/01/01 11:59:02;;;;;;;4.10;1.60;;;16.40;99.90;;;;;;7387442;19;20156;-73
2023/01/01 12:01:40;;;;;;;3.67;1.45;;;16.50;99.90;;;;;;7392159;19;20135;-72
2023/01/01 12:04:17;;;;;;;2.97;1.45;;;16.50;99.90;;;;;;7387993;19;20165;-73
2023/01/01 12:07:01;;;;;;;5.05;1.25;;;16.50;99.90;;;;;;7390491;19;20662;-72
2023/01/01 12:09:27;;;;;;;2.63;1.48;;;16.60;99.90;;;;;;7391410;19;20149;-72
2023/01/01 12:12:11;;;;;;;3.20;1.50;;;16.70;99.90;;;;;;7388904;19;20146;-71
2023/01/01 12:14:52;;;;;;;1.92;1.50;;;16.70;99.90;;;;;;7390107;19;20178;-71
2023/01/01 12:17:37;;;;;;;3.58;1.58;;;16.80;99.90;;;;;;7390187;19;20143;-72
2023/01/01 12:20:11;;;;;;;6.75;1.40;;;16.80;99.90;;;;;;7390780;19;20653;-72
2023/01/01 12:22:39;;;;;;;2.70;1.70;;;16.90;99.90;;;;;;7387729;19;20504;-73
2023/01/01 12:25:09;;;;;;;4.07;1.40;;;16.90;99.90;;;;;;7387007;19;20138;-73
2023/01/01 12:28:00;;;;;;;2.50;1.48;;;17.00;99.90;;;;;;7389156;19;20696;-72
2023/01/01 12:30:59;;;;;;;3.42;1.50;;;16.90;99.90;;;;;;7390319;19;20579;-73
2023/01/01 12:34:02;;;;;;;3.60;1.73;;;17.00;99.90;;;;;;7388567;19;20214;-72
2023/01/01 12:36:44;;;;;;;2.55;1.35;;;17.10;99.90;;;;;;7388517;19;20130;-72
2023/01/01 12:39:29;;;;;;;2.65;1.13;;;17.10;99.90;;;;;;7389869;19;20169;-72
2023/01/01 12:42:27;;;;;;;4.20;1.75;;;17.10;99.90;;;;;;7389309;19;20142;-73
2023/01/01 12:45:28;;;;;;;6.13;1.90;;;17.20;99.90;;;;;;7387243;19;20138;-73
2023/01/01 12:48:00;;;;;;;2.78;1.35;;;17.30;99.90;;;;;;7387228;19;20657;-72
2023/01/01 12:50:49;;;;;;;5.97;1.50;;;17.20;99.90;;;;;;7389857;19;20139;-73
2023/01/01 12:53:33;;;;;;;3.38;1.20;;;17.30;99.90;;;;;;7385439;19;20147;-72
2023/01/01 12:56:23;;;;;;;2.15;1.50;;;17.30;99.90;;;;;;7389203;19;20525;-70
2023/01/01 12:59:09;;;;;;;3.15;1.40;;;17.30;99.90;;;;;;7389160;19;20207;-71
2023/01/01 13:01:37;;;;;;;1.92;1.20;;;17.30;99.90;;;;;;7387376;19;20155;-71
2023/01/01 13:04:10;;;;;;;4.65;1.30;;;17.30;99.90;;;;;;7387661;19;20147;-72
2023/01/01 13:06:42;;;;;;;2.63;1.40;;;17.30;99.90;;;;;;7390221;19;20130;-71
2023/01/01 13:09:20;;;;;;;3.05;1.25;;;17.30;99.90;;;;;;7391944;19;20214;-71